Time;durP1;ratioP1;P1;durP2;ratioP2;P2;SDS_P1;SDS_P2;PMS_P1;PMS_P2;Temp;Humidity;BMP_temperature;BMP_pressure;BME280_temperature;BME280_humidity;BME280_pressure;Samples;Min_cycle;Max_cycle;Signal;HPM_P1;HPM_P2
2022/02/07 00:02:16;;;;;;;6.38;0.90;;;4.10;96.50;;;;;;4983458;28;20042;-78
2022/02/07 00:04:46;;;;;;;3.10;0.80;;;4.10;96.40;;;;;;4981788;28;20049;-79
2022/02/07 00:07:17;;;;;;;5.00;0.70;;;4.10;96.40;;;;;;4997723;28;20491;-79
2022/02/07 00:09:45;;;;;;;4.22;0.65;;;4.10;96.70;;;;;;4997694;28;20049;-79
2022/02/07 00:12:12;;;;;;;6.28;0.98;;;4.20;96.40;;;;;;4997417;28;20042;-79
2022/02/07 00:14:39;;;;;;;4.88;0.75;;;4.20;96.40;;;;;;5013741;28;20048;-79
2022/02/07 00:17:07;;;;;;;6.28;0.88;;;4.20;96.30;;;;;;4997553;28;20042;-78
2022/02/07 00:19:34;;;;;;;5.32;0.70;;;4.30;96.30;;;;;;4996984;28;20100;-79
2022/02/07 00:22:04;;;;;;;4.03;0.60;;;4.30;96.30;;;;;;4981195;28;20045;-79
2022/02/07 00:24:31;;;;;;;5.90;0.57;;;4.40;96.30;;;;;;4965273;28;20140;-79
2022/02/07 00:26:58;;;;;;;2.88;0.60;;;4.40;95.90;;;;;;5013154;28;20453;-79
2022/02/07 00:29:25;;;;;;;3.67;0.50;;;4.40;95.80;;;;;;4997164;28;20111;-79
2022/02/07 00:31:52;;;;;;;3.25;0.55;;;4.30;95.70;;;;;;4997092;28;20046;-79
2022/02/07 00:34:19;;;;;;;6.03;0.60;;;4.20;95.80;;;;;;5013311;28;20441;-78
2022/02/07 00:36:47;;;;;;;0.80;0.20;;;4.10;95.90;;;;;;4996850;28;20413;-79
2022/02/07 00:39:25;;;;;;;1.83;0.20;;;4.00;95.80;;;;;;4996772;28;20565;-79
2022/02/07 00:42:03;;;;;;;3.28;0.20;;;3.90;95.80;;;;;;4997558;28;20050;-80
2022/02/07 00:44:32;;;;;;;1.30;0.20;;;3.90;95.80;;;;;;4998068;28;20096;-79
2022/02/07 00:47:09;;;;;;;1.67;0.30;;;3.80;95.90;;;;;;4996617;28;20483;-79
2022/02/07 00:49:36;;;;;;;1.55;0.20;;;3.80;95.80;;;;;;4996806;28;20502;-79
2022/02/07 00:52:04;;;;;;;2.78;0.30;;;3.80;95.70;;;;;;4980523;28;20041;-79
2022/02/07 00:54:32;;;;;;;3.15;0.30;;;3.80;95.80;;;;;;4996218;28;20523;-79
2022/02/07 00:56:59;;;;;;;3.08;0.30;;;3.80;95.80;;;;;;5012836;28;20058;-79
2022/02/07 00:59:27;;;;;;;2.22;0.17;;;3.80;95.80;;;;;;4981099;28;20046;-79
2022/02/07 01:01:54;;;;;;;4.85;0.40;;;3.80;95.70;;;;;;4980550;28;20096;-80
2022/02/07 01:04:21;;;;;;;5.93;0.80;;;3.90;95.40;;;;;;4980644;28;20053;-79
2022/02/07 01:07:06;;;;;;;4.25;0.40;;;3.90;95.50;;;;;;4998300;28;20052;-80
2022/02/07 01:09:42;;;;;;;;;;;3.90;95.20;;;;;;5013171;28;20073;-79
2022/02/07 01:12:22;;;;;;;7.03;0.63;;;3.90;95.00;;;;;;4996882;28;19922;-79
2022/02/07 01:15:23;;;;;;;6.13;0.43;;;3.90;94.90;;;;;;5000171;28;20046;-78
2022/02/07 01:51:07;;;;;;;7.15;1.05;;;3.90;94.90;;;;;;5012086;28;20053;-80
2022/02/07 01:56:09;;;;;;;3.67;0.63;;;4.00;94.80;;;;;;4998100;28;20045;-80
2022/02/07 01:58:41;;;;;;;7.82;0.77;;;4.00;94.80;;;;;;4984618;28;20099;-80
2022/02/07 02:01:10;;;;;;;6.07;0.95;;;4.00;94.80;;;;;;4999366;28;20048;-80
2022/02/07 02:03:38;;;;;;;5.57;0.70;;;4.00;94.70;;;;;;5015346;28;20072;-80
2022/02/07 02:06:10;;;;;;;6.53;0.80;;;4.00;94.70;;;;;;4998556;28;20045;-80
2022/02/07 02:09:00;;;;;;;5.40;0.60;;;4.00;94.80;;;;;;5001686;28;20156;-80
2022/02/07 02:11:34;;;;;;;3.58;1.05;;;4.10;94.80;;;;;;4983913;28;20122;-80
2022/02/07 02:20:35;;;;;;;6.53;0.93;;;4.20;94.90;;;;;;4948518;28;20057;-80
2022/02/07 02:47:27;;;;;;;5.32;0.80;;;4.10;94.60;;;;;;5001273;28;20048;-80
2022/02/07 02:50:16;;;;;;;6.45;0.70;;;4.10;94.60;;;;;;5000016;28;20064;-81
2022/02/07 02:52:43;;;;;;;7.78;0.95;;;4.20;94.70;;;;;;4984146;28;20053;-80
2022/02/07 02:55:10;;;;;;;4.70;0.50;;;4.20;94.60;;;;;;4982400;28;20524;-80
2022/02/07 02:57:39;;;;;;;7.82;1.20;;;4.20;94.60;;;;;;5014689;28;20049;-80
2022/02/07 03:00:08;;;;;;;9.10;1.33;;;4.20;94.60;;;;;;4999001;28;20139;-80
2022/02/07 03:02:36;;;;;;;8.50;1.27;;;4.30;94.60;;;;;;5015020;28;20049;-80
2022/02/07 03:05:04;;;;;;;7.68;0.73;;;4.30;94.50;;;;;;4982715;28;20049;-80
2022/02/07 03:07:31;;;;;;;7.47;1.20;;;4.30;94.50;;;;;;5014941;28;20493;-80
2022/02/07 03:10:01;;;;;;;10.80;0.70;;;4.30;94.60;;;;;;4982854;28;20115;-81
2022/02/07 03:12:32;;;;;;;11.00;1.55;;;4.30;94.50;;;;;;4982691;28;20041;-81
2022/02/07 03:16:36;;;;;;;9.85;1.15;;;4.30;94.60;;;;;;4982992;28;20386;-81
2022/02/07 03:17:46;;;;;;;6.10;0.90;;;4.30;94.60;;;;;;5006011;28;20495;-81
2022/02/07 03:20:13;;;;;;;8.23;0.90;;;4.30;94.60;;;;;;5001604;28;20045;-80
2022/02/07 03:22:40;;;;;;;7.43;1.10;;;4.30;94.60;;;;;;5018062;28;20050;-81
2022/02/07 03:25:09;;;;;;;8.57;1.45;;;4.40;94.80;;;;;;4986161;28;20091;-81
2022/02/07 03:27:49;;;;;;;6.30;1.55;;;4.40;94.50;;;;;;4989167;28;20386;-81
2022/02/07 03:30:29;;;;;;;5.47;0.63;;;4.40;94.50;;;;;;4988656;28;20128;-81
2022/02/07 03:32:57;;;;;;;6.68;1.10;;;4.40;94.50;;;;;;5001937;28;20077;-81
2022/02/07 03:35:24;;;;;;;5.68;0.73;;;4.50;94.70;;;;;;5017910;28;20036;-81
2022/02/07 03:37:52;;;;;;;5.40;0.95;;;4.50;94.30;;;;;;5017872;28;20045;-81
2022/02/07 03:40:22;;;;;;;9.43;0.80;;;4.50;94.40;;;;;;4986365;28;20059;-81
2022/02/07 03:42:49;;;;;;;8.07;0.70;;;4.50;94.30;;;;;;4985278;28;20572;-81
2022/02/07 03:45:18;;;;;;;4.57;0.90;;;4.50;94.30;;;;;;5001487;28;20042;-80
2022/02/07 03:47:53;;;;;;;8.70;1.33;;;4.60;94.20;;;;;;5002438;28;20456;-81
2022/02/07 03:50:26;;;;;;;8.68;1.00;;;4.60;94.20;;;;;;5002059;28;20059;-81
2022/02/07 03:52:54;;;;;;;11.55;1.48;;;4.70;94.20;;;;;;4985410;28;20041;-80
2022/02/07 03:55:24;;;;;;;9.63;0.85;;;4.70;94.10;;;;;;4985904;28;20515;-81
2022/02/07 03:57:56;;;;;;;9.30;1.25;;;4.90;93.90;;;;;;5001942;28;20049;-81
2022/02/07 04:00:24;;;;;;;7.15;1.38;;;4.90;93.80;;;;;;4984767;28;20052;-81
2022/02/07 04:03:07;;;;;;;7.00;0.82;;;4.90;93.70;;;;;;4974216;28;20071;-81
2022/02/07 04:05:52;;;;;;;15.38;1.55;;;5.00;93.60;;;;;;5003014;28;20136;-81
2022/02/07 04:08:27;;;;;;;12.07;1.00;;;5.00;93.60;;;;;;5001265;28;20045;-81
2022/02/07 04:11:06;;;;;;;9.90;0.95;;;5.10;93.20;;;;;;5001362;28;20481;-82
2022/02/07 04:13:37;;;;;;;7.65;1.42;;;5.20;93.10;;;;;;5001209;28;20068;-81
2022/02/07 04:16:08;;;;;;;5.93;1.00;;;5.20;93.00;;;;;;4986192;28;20498;-81
2022/02/07 04:18:53;;;;;;;7.65;1.02;;;5.30;93.00;;;;;;4985358;28;20304;-81
2022/02/07 04:21:22;;;;;;;7.70;0.75;;;5.30;93.00;;;;;;5001040;28;20042;-82
2022/02/07 04:23:51;;;;;;;8.30;1.08;;;5.30;93.10;;;;;;4969723;28;20045;-81
2022/02/07 04:26:36;;;;;;;8.38;0.93;;;5.30;93.10;;;;;;5002953;28;20049;-82
2022/02/07 04:29:06;;;;;;;5.53;0.60;;;5.30;93.10;;;;;;4999667;28;20049;-82
2022/02/07 04:31:36;;;;;;;8.95;1.30;;;5.30;93.20;;;;;;5001405;28;20414;-82
2022/02/07 04:34:05;;;;;;;10.70;1.08;;;5.40;93.10;;;;;;5000720;28;20084;-82
2022/02/07 04:36:33;;;;;;;8.00;1.00;;;5.40;92.80;;;;;;4968415;28;20137;-82
2022/02/07 04:39:00;;;;;;;8.02;0.80;;;5.50;93.00;;;;;;5016847;28;20047;-82
2022/02/07 04:41:28;;;;;;;7.20;1.83;;;5.50;92.70;;;;;;5000506;28;20452;-82
2022/02/07 04:44:02;;;;;;;5.57;0.70;;;5.50;92.70;;;;;;4968953;28;20548;-82
2022/02/07 04:47:03;;;;;;;8.73;0.88;;;5.60;92.70;;;;;;4986782;28;20401;-81
2022/02/07 04:49:58;;;;;;;7.82;0.90;;;5.60;92.70;;;;;;5000485;28;20077;-82
2022/02/07 04:55:01;;;;;;;9.57;0.80;;;5.60;92.50;;;;;;5000819;28;20038;-82
2022/02/07 05:00:11;;;;;;;9.95;0.93;;;5.70;92.30;;;;;;4984972;28;20049;-82
2022/02/07 05:03:02;;;;;;;9.27;1.17;;;5.70;92.70;;;;;;5002123;28;20041;-83
2022/02/07 05:16:18;;;;;;;9.13;1.10;;;5.80;92.00;;;;;;5001190;28;20095;-84
2022/02/07 05:18:53;;;;;;;9.88;1.30;;;5.80;92.20;;;;;;5000139;28;20512;-83
2022/02/07 05:21:41;;;;;;;13.52;1.30;;;5.80;92.10;;;;;;5006890;28;20048;-83
2022/02/07 05:24:23;;;;;;;7.45;0.80;;;5.80;92.10;;;;;;5002254;28;20135;-83
2022/02/07 05:27:10;;;;;;;5.85;1.10;;;5.80;92.20;;;;;;5002827;28;20053;-83
2022/02/07 05:29:37;;;;;;;10.65;1.52;;;5.80;92.50;;;;;;4984402;28;20539;-83
2022/02/07 05:32:20;;;;;;;5.80;0.95;;;5.80;92.20;;;;;;4987348;28;20045;-83
2022/02/07 05:35:08;;;;;;;7.10;0.80;;;5.80;92.30;;;;;;5005212;28;20037;-83
2022/02/07 05:37:58;;;;;;;8.13;1.00;;;5.80;92.30;;;;;;5006476;28;20050;-83
2022/02/07 05:40:54;;;;;;;10.80;1.02;;;5.80;92.30;;;;;;5000671;28;20041;-82
2022/02/07 05:43:21;;;;;;;7.13;1.10;;;5.80;92.10;;;;;;5027554;28;20052;-83
2022/02/07 05:46:02;;;;;;;12.82;1.02;;;5.90;92.10;;;;;;5000190;28;20048;-82
2022/02/07 05:48:48;;;;;;;13.57;1.98;;;5.90;92.10;;;;;;5018666;28;20053;-83
2022/02/07 05:51:30;;;;;;;5.38;0.90;;;5.90;92.20;;;;;;5015613;28;20128;-83
2022/02/07 05:54:13;;;;;;;13.63;1.30;;;5.80;92.20;;;;;;5001375;28;20132;-82
2022/02/07 05:57:05;;;;;;;9.75;1.65;;;5.90;92.30;;;;;;5002413;28;20045;-83
2022/02/07 05:59:32;;;;;;;15.88;1.45;;;5.90;92.30;;;;;;5015669;28;20060;-83
2022/02/07 06:02:32;;;;;;;7.57;1.15;;;5.90;92.20;;;;;;4967158;28;20486;-83
2022/02/07 06:05:07;;;;;;;10.82;1.10;;;5.90;92.20;;;;;;5015562;28;20050;-84
2022/02/07 06:07:34;;;;;;;12.15;1.33;;;5.90;92.20;;;;;;4983653;28;20041;-83
2022/02/07 06:10:03;;;;;;;8.63;1.02;;;6.00;92.20;;;;;;4999150;28;20448;-84
2022/02/07 06:12:39;;;;;;;4.47;0.70;;;6.00;92.30;;;;;;4999413;28;20050;-83
2022/02/07 06:15:09;;;;;;;5.03;0.93;;;6.00;92.40;;;;;;5015201;28;20052;-84
2022/02/07 06:17:39;;;;;;;4.22;0.50;;;6.00;92.50;;;;;;4999684;28;20046;-83
2022/02/07 06:20:11;;;;;;;5.28;0.80;;;6.00;92.60;;;;;;4999588;28;20042;-84
2022/02/07 06:22:39;;;;;;;3.50;0.38;;;6.00;92.60;;;;;;5000243;28;20424;-84
2022/02/07 06:25:07;;;;;;;3.40;0.50;;;6.00;92.70;;;;;;4983286;28;20088;-83
2022/02/07 06:27:35;;;;;;;4.07;0.40;;;5.90;92.70;;;;;;4999576;28;20052;-83
2022/02/07 06:30:05;;;;;;;3.08;0.80;;;5.80;92.70;;;;;;4999307;28;20050;-83
2022/02/07 06:32:32;;;;;;;5.38;1.25;;;5.80;92.80;;;;;;4998862;28;20502;-83
2022/02/07 06:35:01;;;;;;;4.43;0.85;;;5.70;92.80;;;;;;4983351;28;20064;-83
2022/02/07 06:37:32;;;;;;;7.43;0.80;;;5.70;93.00;;;;;;4999249;28;20049;-83
2022/02/07 06:40:00;;;;;;;11.02;0.98;;;5.60;93.00;;;;;;4999374;28;20046;-83
2022/02/07 06:42:29;;;;;;;5.85;0.55;;;5.60;93.10;;;;;;4999266;28;20069;-82
2022/02/07 06:44:57;;;;;;;8.00;1.38;;;5.50;93.10;;;;;;5015159;28;20481;-83
2022/02/07 06:47:25;;;;;;;7.88;1.45;;;5.50;93.10;;;;;;4998923;28;20045;-82
2022/02/07 06:49:52;;;;;;;12.82;2.65;;;5.50;93.10;;;;;;4999542;28;20076;-85
2022/02/07 06:52:20;;;;;;;7.43;1.70;;;5.50;93.20;;;;;;5000372;28;20053;-82
2022/02/07 06:54:51;;;;;;;10.05;2.03;;;5.40;93.20;;;;;;5018982;28;20050;-82
2022/02/07 06:57:22;;;;;;;8.68;1.80;;;5.40;93.20;;;;;;5018788;28;20085;-82
2022/02/07 06:59:50;;;;;;;4.28;1.08;;;5.40;93.30;;;;;;5002482;28;20037;-82
2022/02/07 07:02:27;;;;;;;4.53;0.80;;;5.40;93.40;;;;;;5003660;28;20131;-83
2022/02/07 07:04:57;;;;;;;5.00;1.05;;;5.30;93.40;;;;;;5003510;28;20046;-82
2022/02/07 07:07:25;;;;;;;8.55;1.08;;;5.30;93.50;;;;;;5002595;28;20053;-83
2022/02/07 07:09:54;;;;;;;9.18;1.63;;;5.30;93.50;;;;;;5002475;28;20049;-82
2022/02/07 07:12:21;;;;;;;10.82;1.20;;;5.30;93.60;;;;;;5002507;28;20145;-82
2022/02/07 07:15:05;;;;;;;8.57;0.93;;;5.30;93.60;;;;;;5002861;28;20052;-83
2022/02/07 07:17:35;;;;;;;4.93;1.00;;;5.30;93.60;;;;;;5018072;28;20053;-82
2022/02/07 07:20:07;;;;;;;5.03;1.05;;;5.30;93.50;;;;;;5002430;28;20440;-82
2022/02/07 07:22:35;;;;;;;3.90;0.57;;;5.30;93.60;;;;;;5002846;28;20103;-82
2022/02/07 07:25:15;;;;;;;6.70;0.80;;;5.20;93.60;;;;;;5002936;28;20094;-82
2022/02/07 07:28:04;;;;;;;6.65;0.80;;;5.20;93.70;;;;;;5018256;28;20383;-82
2022/02/07 07:30:43;;;;;;;7.75;1.50;;;5.20;93.80;;;;;;5021777;28;20049;-82
2022/02/07 07:33:16;;;;;;;7.32;0.98;;;5.20;93.80;;;;;;5018399;28;20128;-82
2022/02/07 07:35:44;;;;;;;8.32;0.80;;;5.20;93.80;;;;;;5017777;28;20058;-82
2022/02/07 07:38:11;;;;;;;7.32;0.90;;;5.20;93.80;;;;;;5001755;28;20226;-80
2022/02/07 07:40:41;;;;;;;7.57;1.40;;;5.30;93.80;;;;;;5017935;28;20061;-82
2022/02/07 07:43:11;;;;;;;11.35;1.52;;;5.20;93.80;;;;;;5002064;28;20097;-81
2022/02/07 07:46:19;;;;;;;9.13;1.65;;;5.20;93.70;;;;;;4946769;28;20048;-79
2022/02/07 07:49:10;;;;;;;10.32;2.30;;;5.20;93.70;;;;;;5003539;28;20103;-82
2022/02/07 07:52:12;;;;;;;11.00;1.15;;;5.20;93.80;;;;;;5017920;28;20049;-81
2022/02/07 08:03:27;;;;;;;8.23;1.02;;;5.20;93.90;;;;;;5003945;28;20095;-84
2022/02/07 08:06:09;;;;;;;5.85;0.90;;;5.10;93.90;;;;;;5001651;28;20053;-85
2022/02/07 08:16:34;;;;;;;4.82;0.60;;;5.20;94.00;;;;;;5034835;28;20057;-84
2022/02/07 08:20:37;;;;;;;5.85;0.88;;;5.20;94.00;;;;;;5019946;28;20041;-83
2022/02/07 08:23:07;;;;;;;5.05;0.77;;;5.20;94.00;;;;;;5017531;28;20095;-80
2022/02/07 08:25:35;;;;;;;5.97;0.75;;;5.20;94.00;;;;;;5017359;28;20140;-82
2022/02/07 08:28:03;;;;;;;8.48;0.70;;;5.20;94.00;;;;;;5017096;28;20045;-85
2022/02/07 08:30:31;;;;;;;8.30;0.80;;;5.30;94.00;;;;;;5000956;28;20046;-84
2022/02/07 08:33:04;;;;;;;8.23;1.00;;;5.30;94.00;;;;;;4986541;28;20041;-84
2022/02/07 08:36:10;;;;;;;6.93;1.23;;;5.40;94.00;;;;;;5000786;28;20379;-84
2022/02/07 08:38:45;;;;;;;14.10;2.38;;;5.40;93.90;;;;;;5000979;28;20650;-84
2022/02/07 08:41:29;;;;;;;12.10;1.25;;;5.40;93.90;;;;;;5018933;28;20048;-84
2022/02/07 08:43:57;;;;;;;5.45;0.82;;;5.50;93.90;;;;;;5000776;28;20080;-84
2022/02/07 08:46:24;;;;;;;10.70;1.08;;;5.50;93.90;;;;;;5000577;28;20045;-83
2022/02/07 08:48:53;;;;;;;10.95;1.25;;;5.50;93.90;;;;;;5001790;28;20041;-84
2022/02/07 08:51:20;;;;;;;10.23;1.05;;;5.50;93.90;;;;;;5001005;28;20045;-89
2022/02/07 08:53:51;;;;;;;11.38;1.27;;;5.60;93.90;;;;;;5017331;28;20045;-88
2022/02/07 08:56:30;;;;;;;;;;;;;;;;;;;;;
2022/02/07 09:11:38;;;;;;;6.70;0.88;;;5.80;93.80;;;;;;5014844;28;20173;-82
2022/02/07 09:14:11;;;;;;;14.85;2.05;;;5.80;93.80;;;;;;4980632;28;20490;-82
2022/02/07 09:16:43;;;;;;;11.10;1.85;;;5.90;93.80;;;;;;4997644;28;20048;-88
2022/02/07 09:19:19;;;;;;;8.48;1.23;;;6.00;93.70;;;;;;4980728;28;20081;-82
2022/02/07 09:21:51;;;;;;;22.65;2.35;;;6.10;93.70;;;;;;4980406;28;20049;-83
2022/02/07 09:24:23;;;;;;;11.68;1.45;;;6.10;93.60;;;;;;4996621;28;20409;-82
2022/02/07 09:26:50;;;;;;;9.95;1.30;;;6.20;93.50;;;;;;4980847;28;20504;-82
2022/02/07 09:29:21;;;;;;;10.20;2.25;;;6.30;93.50;;;;;;4974035;28;20048;-79
2022/02/07 09:32:27;;;;;;;7.15;1.42;;;6.30;93.40;;;;;;4979241;28;20046;-82
2022/02/07 09:34:58;;;;;;;10.85;1.65;;;6.40;93.40;;;;;;4980592;28;20076;-81
2022/02/07 09:37:25;;;;;;;8.60;1.33;;;6.40;93.40;;;;;;4996177;28;20049;-79
2022/02/07 09:39:52;;;;;;;9.48;1.60;;;6.40;93.40;;;;;;4979799;28;20124;-79
2022/02/07 09:42:20;;;;;;;11.13;1.42;;;6.50;93.40;;;;;;4979472;28;20042;-78
2022/02/07 09:44:53;;;;;;;11.48;1.05;;;6.60;93.40;;;;;;4979755;28;20073;-75
2022/02/07 09:47:20;;;;;;;;;;;6.60;93.30;;;;;;4996421;28;20478;-77
2022/02/07 09:49:47;;;;;;;14.02;2.00;;;6.70;93.00;;;;;;4995964;28;20366;-78
2022/02/07 09:52:15;;;;;;;11.93;1.80;;;6.80;92.80;;;;;;4979518;28;20383;-79
2022/02/07 09:54:42;;;;;;;7.18;1.25;;;6.90;92.90;;;;;;4995631;28;20483;-80
2022/02/07 09:57:09;;;;;;;8.48;1.00;;;7.00;92.90;;;;;;4979500;28;20096;-80
2022/02/07 09:59:36;;;;;;;8.20;1.42;;;7.10;92.90;;;;;;4979497;28;20045;-80
2022/02/07 10:02:29;;;;;;;10.38;1.55;;;7.20;92.80;;;;;;4995671;28;20046;-79
2022/02/07 10:05:00;;;;;;;7.25;1.27;;;7.40;92.70;;;;;;4995887;28;20046;-78
2022/02/07 10:07:38;;;;;;;16.10;2.60;;;7.50;92.60;;;;;;4979430;28;20153;-80
2022/02/07 10:13:06;;;;;;;10.05;1.45;;;7.70;92.00;;;;;;4995406;28;20415;-79
2022/02/07 10:15:52;;;;;;;9.65;1.52;;;7.70;92.00;;;;;;4995236;28;20046;-82
2022/02/07 10:39:29;;;;;;;10.07;1.70;;;7.40;90.70;;;;;;5000306;28;20085;-87
2022/02/07 10:42:30;;;;;;;6.72;1.02;;;7.40;90.90;;;;;;4984220;28;20050;-86
2022/02/07 10:44:48;;;;;;;6.60;0.90;;;7.30;91.00;;;;;;4999670;28;20064;-87
2022/02/07 10:47:25;;;;;;;9.80;1.70;;;7.20;91.00;;;;;;5000013;28;20049;-86
2022/02/07 10:50:15;;;;;;;9.05;1.30;;;7.30;91.10;;;;;;4983634;28;20049;-86
2022/02/07 10:52:49;;;;;;;8.88;0.85;;;7.20;91.00;;;;;;4984014;28;20050;-86
2022/02/07 10:55:34;;;;;;;5.80;1.55;;;7.20;91.10;;;;;;4983760;28;20494;-86
2022/02/07 10:58:04;;;;;;;12.13;2.50;;;7.30;90.90;;;;;;4983046;28;20116;-81
2022/02/07 11:00:53;;;;;;;11.75;2.22;;;7.20;90.80;;;;;;4982326;28;20042;-80
2022/02/07 11:03:23;;;;;;;10.45;1.60;;;7.30;90.90;;;;;;4982282;28;20046;-81
2022/02/07 11:05:55;;;;;;;9.05;1.27;;;7.30;91.00;;;;;;4997856;28;20053;-81
2022/02/07 11:08:28;;;;;;;9.77;1.67;;;7.30;91.00;;;;;;4982314;28;20145;-81
2022/02/07 11:16:20;;;;;;;11.85;1.15;;;7.50;90.50;;;;;;5020139;28;20069;-85
2022/02/07 11:27:14;;;;;;;8.93;0.68;;;7.80;90.40;;;;;;4998244;28;20486;-82
2022/02/07 11:29:49;;;;;;;5.57;0.60;;;7.80;90.30;;;;;;4982069;28;20050;-81
2022/02/07 11:32:49;;;;;;;2.97;0.50;;;7.90;90.20;;;;;;4967023;28;20046;-82
2022/02/07 11:35:53;;;;;;;5.10;0.90;;;8.00;90.20;;;;;;5002582;28;20046;-81
2022/02/07 11:38:20;;;;;;;6.20;0.80;;;7.90;89.50;;;;;;4998165;28;20092;-88
2022/02/07 11:40:55;;;;;;;7.88;1.35;;;8.00;89.80;;;;;;4967195;28;20038;-84
2022/02/07 11:43:29;;;;;;;6.82;0.95;;;8.00;89.80;;;;;;4982527;28;20088;-84
2022/02/07 11:46:05;;;;;;;4.65;0.70;;;8.00;88.50;;;;;;4982586;28;20046;-92
2022/02/07 11:48:43;;;;;;;6.53;0.68;;;8.00;88.60;;;;;;4982772;28;20490;-82
2022/02/07 11:51:20;;;;;;;6.07;1.27;;;8.10;88.50;;;;;;4983034;28;20062;-91
2022/02/07 11:53:51;;;;;;;2.10;0.38;;;8.20;88.80;;;;;;5000110;28;20050;-82
2022/02/07 11:56:23;;;;;;;4.03;0.50;;;8.30;89.20;;;;;;4985070;28;20052;-89
2022/02/07 12:02:05;;;;;;;8.07;0.60;;;8.50;88.00;;;;;;4997760;28;20037;-82
2022/02/07 12:04:45;;;;;;;7.40;1.10;;;8.60;86.80;;;;;;4997847;28;20138;-81
2022/02/07 12:07:22;;;;;;;7.15;1.30;;;8.60;86.30;;;;;;4981541;28;20038;-93
2022/02/07 12:12:40;;;;;;;6.13;1.30;;;8.80;86.10;;;;;;4997402;28;20140;-82
2022/02/07 12:15:29;;;;;;;6.13;0.50;;;8.80;86.20;;;;;;4981900;28;20413;-87
2022/02/07 12:18:12;;;;;;;5.65;0.50;;;8.90;86.20;;;;;;4982607;28;20056;-86
2022/02/07 12:20:52;;;;;;;6.97;0.73;;;9.00;86.20;;;;;;4982225;28;20382;-91
2022/02/07 12:23:29;;;;;;;13.75;2.60;;;9.00;85.90;;;;;;4967084;28;20134;-93
2022/02/07 12:30:33;;;;;;;7.25;0.90;;;8.90;85.60;;;;;;4898231;29;20524;-92
2022/02/07 12:33:05;;;;;;;8.40;0.93;;;8.90;86.20;;;;;;4937305;28;20047;-85
2022/02/07 12:35:53;;;;;;;7.30;0.60;;;8.90;85.00;;;;;;4984399;28;20504;-89
2022/02/07 12:38:22;;;;;;;8.88;0.80;;;8.90;84.90;;;;;;4998111;28;20056;-82
2022/02/07 12:40:49;;;;;;;6.60;0.70;;;8.80;85.40;;;;;;4997462;28;20060;-83
2022/02/07 12:43:19;;;;;;;3.13;1.13;;;8.60;85.70;;;;;;4981694;28;20054;-87
2022/02/07 12:45:46;;;;;;;7.57;1.23;;;8.50;85.80;;;;;;4997871;28;20046;-85
2022/02/07 12:48:17;;;;;;;9.38;1.25;;;8.30;86.10;;;;;;4950422;28;20042;-87
2022/02/07 12:50:49;;;;;;;8.10;1.40;;;8.20;86.20;;;;;;4980574;28;20042;-87
2022/02/07 12:53:21;;;;;;;6.72;0.80;;;8.20;85.40;;;;;;4981635;28;20084;-89
2022/02/07 12:55:55;;;;;;;6.13;0.70;;;8.30;85.30;;;;;;4981995;28;20069;-88
2022/02/07 12:58:28;;;;;;;5.25;0.75;;;8.40;85.40;;;;;;4994366;28;20069;-92
2022/02/07 13:00:55;;;;;;;2.65;0.50;;;8.60;85.30;;;;;;4994413;28;20054;-88
2022/02/07 13:03:23;;;;;;;4.47;0.32;;;8.60;84.90;;;;;;4962176;28;20517;-87
2022/02/07 13:05:52;;;;;;;5.53;1.05;;;8.70;84.90;;;;;;4962028;28;20081;-88
2022/02/07 13:08:21;;;;;;;4.80;0.50;;;8.70;85.10;;;;;;4962255;28;20046;-87
2022/02/07 13:10:55;;;;;;;5.50;0.50;;;8.70;85.30;;;;;;4978336;28;20061;-87
2022/02/07 13:13:39;;;;;;;7.00;0.85;;;8.80;84.90;;;;;;4978067;28;20050;-88
2022/02/07 13:16:07;;;;;;;4.93;0.68;;;8.70;83.70;;;;;;4978456;28;20081;-88
2022/02/07 13:18:39;;;;;;;3.35;0.65;;;8.70;83.60;;;;;;4977722;28;20081;-88
2022/02/07 13:21:14;;;;;;;4.70;0.60;;;8.60;83.90;;;;;;4977682;28;20503;-88
2022/02/07 13:23:42;;;;;;;6.18;0.70;;;8.60;84.10;;;;;;4962410;28;20069;-86
2022/02/07 13:26:14;;;;;;;2.80;0.43;;;8.50;84.10;;;;;;4961899;28;20074;-85
2022/02/07 13:28:43;;;;;;;7.60;0.88;;;8.50;84.40;;;;;;4977600;28;20132;-85
2022/02/07 13:31:12;;;;;;;3.67;0.60;;;8.50;83.50;;;;;;4993792;28;20495;-87
2022/02/07 13:33:53;;;;;;;8.90;0.73;;;8.50;83.80;;;;;;4993932;28;20489;-90
2022/02/07 13:37:49;;;;;;;5.05;1.55;;;8.50;82.60;;;;;;4954832;29;20573;-90
2022/02/07 13:40:54;;;;;;;2.83;0.50;;;8.50;82.60;;;;;;4927783;29;20051;-87
2022/02/07 13:43:29;;;;;;;5.15;1.17;;;8.50;82.00;;;;;;4934808;28;20142;-85
2022/02/07 13:46:33;;;;;;;5.38;0.60;;;8.50;82.40;;;;;;4957285;28;20070;-95
2022/02/07 13:49:01;;;;;;;3.75;0.70;;;8.50;82.40;;;;;;4932975;28;20047;-84
2022/02/07 13:51:29;;;;;;;7.05;1.42;;;8.50;82.80;;;;;;4948905;28;20059;-84
2022/02/07 13:54:01;;;;;;;5.00;0.73;;;8.50;82.90;;;;;;4968662;28;20542;-84
2022/02/07 13:56:40;;;;;;;4.40;0.80;;;8.50;82.80;;;;;;4943339;28;20106;-84
2022/02/07 13:59:20;;;;;;;4.45;0.68;;;8.50;82.50;;;;;;4947461;28;20055;-83
2022/02/07 14:03:18;;;;;;;5.07;0.70;;;8.50;82.70;;;;;;4873542;29;20053;-86
2022/02/07 14:05:51;;;;;;;8.98;0.95;;;8.60;83.00;;;;;;4880923;29;20413;-83
2022/02/07 14:08:55;;;;;;;9.52;1.00;;;8.60;82.50;;;;;;4896157;29;20139;-84
2022/02/07 14:11:29;;;;;;;7.15;0.70;;;8.60;82.20;;;;;;4855434;29;20048;-84
2022/02/07 14:14:01;;;;;;;4.90;0.60;;;8.50;82.70;;;;;;4886338;29;20051;-83
2022/02/07 14:16:34;;;;;;;7.03;0.80;;;8.40;82.70;;;;;;4921035;29;20157;-83
2022/02/07 14:19:03;;;;;;;4.78;0.65;;;8.40;82.90;;;;;;4937463;29;20051;-86
2022/02/07 14:21:33;;;;;;;4.55;0.77;;;8.30;82.60;;;;;;4907253;29;20043;-82
2022/02/07 14:24:00;;;;;;;9.18;1.05;;;8.30;82.50;;;;;;4937084;29;20048;-84
2022/02/07 14:26:54;;;;;;;6.93;1.60;;;8.30;82.70;;;;;;4923827;29;20529;-85
2022/02/07 14:29:22;;;;;;;3.55;0.63;;;8.30;82.50;;;;;;4922174;29;20076;-85
2022/02/07 14:32:09;;;;;;;6.40;0.95;;;8.30;82.20;;;;;;4935287;28;20136;-83
2022/02/07 14:34:36;;;;;;;3.72;0.70;;;8.30;82.10;;;;;;4962623;28;20053;-83
2022/02/07 14:37:09;;;;;;;5.68;1.00;;;8.30;82.30;;;;;;4962796;28;20104;-81
2022/02/07 14:39:36;;;;;;;6.47;0.95;;;8.30;82.60;;;;;;4988646;28;20077;-81
2022/02/07 14:42:07;;;;;;;3.90;0.60;;;8.30;82.50;;;;;;4995927;28;20050;-86
2022/02/07 14:44:56;;;;;;;1.90;0.50;;;8.30;82.70;;;;;;4996255;28;20042;-84
2022/02/07 14:47:50;;;;;;;3.67;0.50;;;8.30;82.30;;;;;;5012334;28;20041;-90
2022/02/07 14:50:23;;;;;;;2.95;0.50;;;8.20;82.60;;;;;;5012805;28;20046;-88
2022/02/07 14:52:55;;;;;;;;;;;8.20;82.90;;;;;;5012482;28;20045;-86
2022/02/07 14:55:36;;;;;;;8.25;0.80;;;8.20;82.70;;;;;;4982159;28;19956;-87
2022/02/07 14:58:21;;;;;;;7.88;0.70;;;8.30;82.70;;;;;;4992917;28;20054;-91
2022/02/07 15:00:51;;;;;;;5.88;0.63;;;8.30;82.20;;;;;;4997655;28;20050;-92
2022/02/07 15:03:23;;;;;;;3.92;0.70;;;8.30;82.00;;;;;;4996174;28;20105;-86
2022/02/07 15:05:54;;;;;;;3.15;0.50;;;8.20;81.40;;;;;;5012110;28;20081;-87
2022/02/07 15:08:23;;;;;;;4.15;0.50;;;8.20;81.60;;;;;;5012077;28;20038;-87
2022/02/07 15:10:51;;;;;;;3.63;0.75;;;8.20;81.70;;;;;;5012274;28;20045;-88
2022/02/07 15:13:21;;;;;;;8.45;0.70;;;8.10;81.80;;;;;;4996934;28;20050;-87
2022/02/07 15:15:48;;;;;;;7.38;1.02;;;8.10;81.60;;;;;;4999756;28;20151;-88
2022/02/07 15:18:17;;;;;;;7.07;0.70;;;8.10;81.30;;;;;;4983377;28;20105;-91
2022/02/07 15:20:44;;;;;;;8.40;1.13;;;8.00;81.10;;;;;;4985610;28;20046;-87
2022/02/07 15:27:19;;;;;;;6.75;0.82;;;7.90;80.30;;;;;;5222147;23;20164;-89
2022/02/07 15:29:54;;;;;;;4.95;0.43;;;7.80;80.40;;;;;;5006201;28;20045;-86
2022/02/07 15:32:38;;;;;;;3.75;0.57;;;7.80;80.30;;;;;;5022909;28;20127;-90
2022/02/07 15:35:21;;;;;;;;;;;;;;;;;;;;;
2022/02/07 15:38:07;;;;;;;4.03;0.30;;;7.60;80.70;;;;;;5039048;28;19967;-90
2022/02/07 15:40:34;;;;;;;3.15;0.40;;;7.60;80.70;;;;;;5038523;28;20045;-87
2022/02/07 15:43:05;;;;;;;3.80;0.55;;;7.60;80.90;;;;;;5021410;28;20136;-84
2022/02/07 15:45:33;;;;;;;1.20;0.20;;;7.60;80.70;;;;;;5021793;28;20049;-86
2022/02/07 15:48:04;;;;;;;3.42;0.60;;;7.60;81.00;;;;;;5021710;28;20056;-89
2022/02/07 15:50:51;;;;;;;7.05;0.88;;;7.70;81.20;;;;;;5024042;28;20486;-86
2022/02/07 15:53:37;;;;;;;5.28;0.82;;;7.70;80.50;;;;;;5038429;28;20826;-86
2022/02/07 15:56:17;;;;;;;5.22;0.82;;;7.70;80.30;;;;;;5039696;28;20042;-82
2022/02/07 15:58:44;;;;;;;3.72;0.47;;;7.70;80.30;;;;;;5037303;28;20049;-85
2022/02/07 16:01:12;;;;;;;3.38;0.32;;;7.70;80.40;;;;;;5003111;28;20045;-85
2022/02/07 16:03:39;;;;;;;3.45;0.50;;;7.60;80.50;;;;;;5018202;28;20458;-84
2022/02/07 16:06:08;;;;;;;6.20;1.08;;;7.60;80.60;;;;;;5017569;28;20048;-83
2022/02/07 16:08:35;;;;;;;2.45;0.55;;;7.60;80.90;;;;;;5001311;28;20045;-88
2022/02/07 16:11:03;;;;;;;4.65;0.35;;;7.60;81.10;;;;;;5001639;28;20486;-90
2022/02/07 16:13:36;;;;;;;4.43;0.57;;;7.60;80.90;;;;;;5018591;28;20050;-94
2022/02/07 16:16:12;;;;;;;3.92;0.90;;;7.50;81.40;;;;;;5018783;28;20050;-91
2022/02/07 16:18:50;;;;;;;7.68;1.02;;;7.50;80.80;;;;;;5003424;28;20049;-91
2022/02/07 16:21:20;;;;;;;6.47;0.60;;;7.50;80.90;;;;;;5002153;28;20053;-89
2022/02/07 16:23:47;;;;;;;5.32;0.63;;;7.50;81.10;;;;;;5001966;28;20045;-91